Terminal Aerodrome Forecast
Issued by NWS Austin/San Antonio, TX

Home | Current Version | Previous Version | Text Only | Print | Product List | Glossary On
Versions: 1 2 3 4 5 6 7 8 9 10 11 12
000
FTUS44 KEWX 040532
TAFDRT
TAF
KDRT 040532Z 0406/0506 11010KT P6SM SKC
     FM041500 14011KT P6SM FEW025=

USA.gov is the U.S. government's official web portal to all federal, state and local government web resources and services.